Time;durP1;ratioP1;P1;durP2;ratioP2;P2;SDS_P1;SDS_P2;PMS_P1;PMS_P2;Temp;Humidity;BMP_temperature;BMP_pressure;BME280_temperature;BME280_humidity;BME280_pressure;Samples;Min_cycle;Max_cycle;Signal;HPM_P1;HPM_P2
2021/12/15 00:00:56;;;;;;;35.87;15.20;;;9.20;99.90;;;;;;5049149;28;20206;-46
2021/12/15 00:03:23;;;;;;;35.57;16.40;;;9.10;99.90;;;;;;5067848;28;20204;-46
2021/12/15 00:05:51;;;;;;;39.00;15.70;;;9.10;99.90;;;;;;5057301;28;20214;-47
2021/12/15 00:08:19;;;;;;;38.20;16.93;;;9.10;99.90;;;;;;5057782;28;20219;-47
2021/12/15 00:10:48;;;;;;;32.67;16.33;;;9.10;99.90;;;;;;5068447;28;20976;-48
2021/12/15 00:13:17;;;;;;;31.33;15.77;;;9.20;99.90;;;;;;5072952;28;20210;-46
2021/12/15 00:15:45;;;;;;;32.83;15.60;;;9.20;99.90;;;;;;5070109;27;20207;-47
2021/12/15 00:18:12;;;;;;;29.93;14.83;;;9.20;99.90;;;;;;5074082;28;20218;-46
2021/12/15 00:20:40;;;;;;;36.00;15.97;;;9.20;99.90;;;;;;5067605;28;20192;-43
2021/12/15 00:23:08;;;;;;;33.03;15.47;;;9.20;99.90;;;;;;5070891;28;20574;-43
2021/12/15 00:25:41;;;;;;;37.35;16.50;;;9.20;99.90;;;;;;5044075;28;20308;-44
2021/12/15 00:28:08;;;;;;;32.43;15.37;;;9.20;99.90;;;;;;5064454;28;20203;-44
2021/12/15 00:30:36;;;;;;;36.07;15.83;;;9.20;99.90;;;;;;5058543;28;20212;-44
2021/12/15 00:33:03;;;;;;;35.13;15.37;;;9.20;99.90;;;;;;5076250;28;20212;-44
2021/12/15 00:35:30;;;;;;;41.40;16.93;;;9.20;99.90;;;;;;5060062;28;20195;-47
2021/12/15 00:37:57;;;;;;;41.37;17.23;;;9.20;99.90;;;;;;5073937;28;20208;-47
2021/12/15 00:40:26;;;;;;;37.07;16.03;;;9.20;99.90;;;;;;5041822;28;20204;-47
2021/12/15 00:42:55;;;;;;;42.00;16.27;;;9.20;99.90;;;;;;5080066;28;20210;-47
2021/12/15 00:45:22;;;;;;;34.58;16.50;;;9.30;99.90;;;;;;5052437;28;20230;-48
2021/12/15 00:47:49;;;;;;;40.77;15.77;;;9.30;99.90;;;;;;5083078;28;20674;-47
2021/12/15 00:50:19;;;;;;;42.33;16.30;;;9.30;99.90;;;;;;5058850;28;20207;-47
2021/12/15 00:52:46;;;;;;;35.95;16.23;;;9.30;99.90;;;;;;5070204;28;20220;-47
2021/12/15 00:55:15;;;;;;;42.15;15.48;;;9.20;99.90;;;;;;5060551;28;20231;-47
2021/12/15 00:57:42;;;;;;;44.77;16.73;;;9.30;99.90;;;;;;5082732;28;20203;-44
2021/12/15 01:00:15;;;;;;;39.05;16.23;;;9.30;99.90;;;;;;5056956;28;20202;-45
2021/12/15 01:02:42;;;;;;;41.27;16.77;;;9.30;99.90;;;;;;5076856;28;20199;-44
2021/12/15 01:05:13;;;;;;;41.50;17.10;;;9.30;99.90;;;;;;5054585;28;20348;-44
2021/12/15 01:07:40;;;;;;;35.43;15.70;;;9.30;99.90;;;;;;5058465;28;20569;-45
2021/12/15 01:10:09;;;;;;;44.27;16.30;;;9.40;99.90;;;;;;5058437;28;20304;-45
2021/12/15 01:12:50;;;;;;;42.50;16.93;;;9.30;99.90;;;;;;5057068;28;20230;-49
2021/12/15 01:21:10;;;;;;;45.38;17.15;;;9.30;99.90;;;;;;5060502;28;20226;-48
2021/12/15 01:23:37;;;;;;;43.47;17.65;;;9.40;99.90;;;;;;5073615;28;20223;-47
2021/12/15 01:26:08;;;;;;;44.95;17.92;;;9.30;99.90;;;;;;5059579;28;20582;-46
2021/12/15 01:28:36;;;;;;;41.60;18.07;;;9.40;99.90;;;;;;5074132;28;20202;-47
2021/12/15 01:31:06;;;;;;;42.80;17.25;;;9.30;99.90;;;;;;5067167;28;20232;-47
2021/12/15 01:33:35;;;;;;;45.80;18.03;;;9.30;99.90;;;;;;5067265;28;20215;-47
2021/12/15 01:36:06;;;;;;;42.45;17.30;;;9.40;99.90;;;;;;5061045;28;20208;-47
2021/12/15 01:38:35;;;;;;;39.57;17.63;;;9.30;99.90;;;;;;5041810;28;20339;-47
2021/12/15 01:41:03;;;;;;;49.35;18.67;;;9.30;99.90;;;;;;5053280;28;20204;-47
2021/12/15 01:43:48;;;;;;;43.03;17.40;;;9.40;99.90;;;;;;5059174;28;20224;-47
2021/12/15 01:49:08;;;;;;;53.65;19.98;;;9.40;99.90;;;;;;5083130;28;20665;-46
2021/12/15 01:51:35;;;;;;;60.33;20.67;;;9.40;99.90;;;;;;5056514;28;20825;-47
2021/12/15 01:54:03;;;;;;;48.33;19.50;;;9.40;99.90;;;;;;5083975;28;20710;-46
2021/12/15 01:56:30;;;;;;;52.00;20.42;;;9.40;99.90;;;;;;5045325;28;20229;-47
2021/12/15 01:58:58;;;;;;;66.40;22.10;;;9.40;99.90;;;;;;5075711;28;20580;-47
2021/12/15 02:01:27;;;;;;;54.42;19.90;;;9.40;99.90;;;;;;5061201;28;20215;-47
2021/12/15 02:03:55;;;;;;;59.50;20.38;;;9.30;99.90;;;;;;5043168;28;20239;-48
2021/12/15 02:06:22;;;;;;;55.67;19.15;;;9.40;99.90;;;;;;5052300;28;21961;-48
2021/12/15 02:08:49;;;;;;;64.25;21.60;;;9.40;99.90;;;;;;5069597;28;20214;-47
2021/12/15 02:11:17;;;;;;;58.70;21.93;;;9.40;99.90;;;;;;5049484;28;20239;-43
2021/12/15 02:13:44;;;;;;;52.38;19.95;;;9.50;99.90;;;;;;5075182;28;20226;-43
2021/12/15 02:16:11;;;;;;;61.58;21.88;;;9.40;99.90;;;;;;5070568;28;20211;-44
2021/12/15 02:18:42;;;;;;;55.13;20.55;;;9.40;99.90;;;;;;5054984;28;20204;-45
2021/12/15 02:21:15;;;;;;;67.47;22.00;;;9.40;99.90;;;;;;5076325;28;20279;-45
2021/12/15 02:23:47;;;;;;;72.07;23.25;;;9.40;99.90;;;;;;5054996;28;20633;-45
2021/12/15 02:26:18;;;;;;;64.70;21.88;;;9.40;99.90;;;;;;5061967;28;20207;-44
2021/12/15 02:28:47;;;;;;;70.63;22.93;;;9.40;99.90;;;;;;5058095;28;20233;-44
2021/12/15 02:31:21;;;;;;;62.90;22.10;;;9.50;99.90;;;;;;5074785;28;20989;-43
2021/12/15 02:34:04;;;;;;;66.10;23.65;;;9.40;99.90;;;;;;5046495;28;20223;-44
2021/12/15 02:39:17;;;;;;;67.50;22.48;;;9.50;99.90;;;;;;5050167;28;20474;-44
2021/12/15 02:41:46;;;;;;;69.68;23.15;;;9.50;99.90;;;;;;5060501;28;20199;-44
2021/12/15 02:44:15;;;;;;;71.93;24.33;;;9.40;99.90;;;;;;5060155;28;20368;-43
2021/12/15 02:46:44;;;;;;;75.53;24.45;;;9.50;99.90;;;;;;5076026;28;20546;-45
2021/12/15 02:49:12;;;;;;;74.18;23.48;;;9.50;99.90;;;;;;5050167;28;20491;-43
2021/12/15 02:51:43;;;;;;;68.68;24.30;;;9.50;99.90;;;;;;5087976;28;20219;-44
2021/12/15 02:54:12;;;;;;;65.05;22.35;;;9.50;99.90;;;;;;5066846;28;20224;-43
2021/12/15 02:56:40;;;;;;;82.32;24.95;;;9.50;99.90;;;;;;5051261;27;20235;-44
2021/12/15 02:59:08;;;;;;;73.93;24.05;;;9.50;99.90;;;;;;5070938;28;20208;-43
2021/12/15 03:01:51;;;;;;;65.68;23.10;;;9.50;99.90;;;;;;5063657;28;20195;-44
2021/12/15 03:04:37;;;;;;;75.13;24.90;;;9.50;99.90;;;;;;5061867;27;20231;-44
2021/12/15 03:07:12;;;;;;;70.43;23.95;;;9.50;99.90;;;;;;5065699;28;20212;-44
2021/12/15 03:15:24;;;;;;;69.82;23.42;;;9.50;99.90;;;;;;5062760;28;20256;-43
2021/12/15 03:17:54;;;;;;;71.80;23.40;;;9.50;99.90;;;;;;5076353;28;20200;-44
2021/12/15 03:20:21;;;;;;;63.63;22.90;;;9.50;99.90;;;;;;5058317;28;21107;-44
2021/12/15 03:22:51;;;;;;;65.28;24.02;;;9.50;99.90;;;;;;5066025;28;20199;-44
2021/12/15 03:25:18;;;;;;;64.18;24.85;;;9.50;99.90;;;;;;5063579;28;20232;-43
2021/12/15 03:36:05;;;;;;;62.22;24.10;;;9.60;99.90;;;;;;5063641;27;21072;-43
2021/12/15 03:38:34;;;;;;;68.05;24.73;;;9.60;99.90;;;;;;5083054;28;20842;-44
2021/12/15 03:41:01;;;;;;;69.68;23.80;;;9.60;99.90;;;;;;5078721;28;20239;-43
2021/12/15 03:43:29;;;;;;;61.78;22.48;;;9.60;99.90;;;;;;5063959;28;20234;-47
2021/12/15 03:46:00;;;;;;;60.42;24.13;;;9.60;99.90;;;;;;5068564;28;21018;-44
2021/12/15 03:48:31;;;;;;;58.22;24.45;;;9.60;99.90;;;;;;5064497;28;20507;-44
2021/12/15 03:50:58;;;;;;;51.88;22.05;;;9.60;99.90;;;;;;5051948;27;20545;-45
2021/12/15 03:53:26;;;;;;;65.10;24.42;;;9.50;99.90;;;;;;5079380;27;20361;-45
2021/12/15 03:55:55;;;;;;;55.67;23.85;;;9.60;99.90;;;;;;5061567;28;20216;-45
2021/12/15 03:58:24;;;;;;;60.78;23.90;;;9.60;99.90;;;;;;5060013;28;20208;-45
2021/12/15 04:00:56;;;;;;;60.20;24.85;;;9.50;99.90;;;;;;5072084;28;20285;-45
2021/12/15 04:03:26;;;;;;;57.28;24.23;;;9.60;99.90;;;;;;5068812;28;20195;-45
2021/12/15 04:05:54;;;;;;;58.30;24.92;;;9.60;99.90;;;;;;5056222;28;20273;-45
2021/12/15 04:08:21;;;;;;;58.25;24.38;;;9.60;99.90;;;;;;5061968;28;20211;-45
2021/12/15 04:10:49;;;;;;;53.33;23.13;;;9.60;99.90;;;;;;5061244;28;20207;-44
2021/12/15 04:13:18;;;;;;;53.50;22.98;;;9.60;99.90;;;;;;5067102;28;20215;-45
2021/12/15 04:15:52;;;;;;;46.55;21.77;;;9.60;99.90;;;;;;5051889;28;20204;-45
2021/12/15 04:18:19;;;;;;;53.00;22.50;;;9.60;99.90;;;;;;5060630;28;20212;-45
2021/12/15 04:20:46;;;;;;;53.70;21.83;;;9.60;99.90;;;;;;5072778;28;20210;-45
2021/12/15 04:23:19;;;;;;;50.38;22.23;;;9.60;99.90;;;;;;5061898;28;20211;-48
2021/12/15 04:25:47;;;;;;;48.88;20.70;;;9.60;99.90;;;;;;5052575;28;20204;-48
2021/12/15 04:28:17;;;;;;;45.28;21.08;;;9.70;99.90;;;;;;5078158;28;20208;-48
2021/12/15 04:30:49;;;;;;;43.33;20.48;;;9.70;99.90;;;;;;5041081;28;21595;-48
2021/12/15 04:33:23;;;;;;;43.65;20.77;;;9.70;99.90;;;;;;5064639;28;20222;-48
2021/12/15 04:35:52;;;;;;;46.83;19.15;;;9.60;99.90;;;;;;5072137;28;20204;-48
2021/12/15 04:38:19;;;;;;;45.28;20.90;;;9.70;99.90;;;;;;5052128;28;20207;-49
2021/12/15 04:40:46;;;;;;;49.15;20.55;;;9.70;99.90;;;;;;5057266;28;20216;-48
2021/12/15 04:43:13;;;;;;;44.55;20.13;;;9.70;99.90;;;;;;5072987;28;20204;-48
2021/12/15 04:45:40;;;;;;;43.92;21.05;;;9.70;99.90;;;;;;5051376;28;20200;-49
2021/12/15 04:48:09;;;;;;;44.22;20.90;;;9.60;99.90;;;;;;5067919;28;20212;-48
2021/12/15 04:50:38;;;;;;;42.85;20.13;;;9.70;99.90;;;;;;5074428;28;20211;-49
2021/12/15 04:53:07;;;;;;;46.63;19.88;;;9.70;99.90;;;;;;5043902;28;20223;-46
2021/12/15 04:55:37;;;;;;;45.95;21.02;;;9.70;99.90;;;;;;5052603;28;20204;-46
2021/12/15 04:58:06;;;;;;;47.22;20.33;;;9.70;99.90;;;;;;5055798;28;20195;-46
2021/12/15 05:00:44;;;;;;;42.97;19.60;;;9.70;99.90;;;;;;5051905;27;21292;-46
2021/12/15 05:03:13;;;;;;;42.65;19.63;;;9.70;99.90;;;;;;5061559;28;20207;-47
2021/12/15 05:05:41;;;;;;;44.15;19.75;;;9.70;99.90;;;;;;5064132;28;21753;-47
2021/12/15 05:08:09;;;;;;;42.15;19.40;;;9.70;99.90;;;;;;5047230;28;20637;-47
2021/12/15 05:10:37;;;;;;;40.63;18.55;;;9.70;99.90;;;;;;5052950;28;20215;-46
2021/12/15 05:13:06;;;;;;;46.53;19.25;;;9.70;99.90;;;;;;5050840;28;20590;-46
2021/12/15 05:15:34;;;;;;;43.65;18.85;;;9.80;99.90;;;;;;5047445;28;20207;-46
2021/12/15 05:18:01;;;;;;;42.80;18.52;;;9.70;99.90;;;;;;5068249;28;20199;-46
2021/12/15 05:20:30;;;;;;;44.92;19.30;;;9.70;99.90;;;;;;5048581;28;20204;-46
2021/12/15 05:22:58;;;;;;;35.92;17.35;;;9.80;99.90;;;;;;5047594;28;21202;-47
2021/12/15 05:25:25;;;;;;;42.95;18.17;;;9.70;99.90;;;;;;5062892;28;20230;-46
2021/12/15 05:27:52;;;;;;;36.35;17.17;;;9.80;99.90;;;;;;5061705;28;21115;-46
2021/12/15 05:30:20;;;;;;;38.65;18.88;;;9.80;99.90;;;;;;5061077;28;20849;-46
2021/12/15 05:32:48;;;;;;;35.47;16.87;;;9.80;99.90;;;;;;5027889;27;20694;-46
2021/12/15 05:35:21;;;;;;;36.83;17.55;;;9.70;99.90;;;;;;5042401;28;20219;-47
2021/12/15 05:37:50;;;;;;;37.95;16.60;;;9.80;99.90;;;;;;5046406;28;20206;-47
2021/12/15 05:40:17;;;;;;;38.72;16.35;;;9.80;99.90;;;;;;5062507;28;34749;-46
2021/12/15 05:42:44;;;;;;;36.27;16.60;;;9.80;99.90;;;;;;5072971;28;20214;-47
2021/12/15 05:45:12;;;;;;;32.22;15.25;;;9.80;99.90;;;;;;5051805;28;20223;-46
2021/12/15 05:47:39;;;;;;;35.03;16.02;;;9.80;99.90;;;;;;5038911;28;20371;-47
2021/12/15 05:50:09;;;;;;;32.58;16.80;;;9.80;99.90;;;;;;5056153;28;20211;-47
2021/12/15 05:52:37;;;;;;;36.17;17.15;;;9.80;99.90;;;;;;5034214;28;20246;-46
2021/12/15 05:55:09;;;;;;;32.63;15.93;;;9.80;99.90;;;;;;5053403;28;20228;-47
2021/12/15 05:57:36;;;;;;;38.55;17.48;;;9.80;99.90;;;;;;5055342;28;20397;-46
2021/12/15 06:00:08;;;;;;;35.45;16.77;;;9.80;99.90;;;;;;5045466;28;22908;-46
2021/12/15 06:02:35;;;;;;;34.38;17.27;;;9.80;99.90;;;;;;5047489;28;20381;-47
2021/12/15 06:05:02;;;;;;;36.90;17.42;;;9.80;99.90;;;;;;5047166;28;20227;-47
2021/12/15 06:07:29;;;;;;;34.60;17.40;;;9.80;99.90;;;;;;5048232;28;20208;-46
2021/12/15 06:09:56;;;;;;;41.22;16.67;;;9.80;99.90;;;;;;5036367;28;21104;-46
2021/12/15 06:12:24;;;;;;;37.20;17.40;;;9.80;99.90;;;;;;5069212;28;20196;-48
2021/12/15 06:14:52;;;;;;;35.85;16.48;;;9.80;99.90;;;;;;5046654;28;20235;-48
2021/12/15 06:17:25;;;;;;;36.15;17.52;;;9.80;99.90;;;;;;5011769;28;20868;-48
2021/12/15 06:19:53;;;;;;;35.45;16.77;;;9.80;99.90;;;;;;5066144;28;20208;-47
2021/12/15 06:22:25;;;;;;;37.33;17.50;;;9.70;99.90;;;;;;5050780;28;23000;-47
2021/12/15 06:24:54;;;;;;;35.22;17.38;;;9.70;99.90;;;;;;5047408;28;20207;-46
2021/12/15 06:27:21;;;;;;;36.55;18.50;;;9.70;99.90;;;;;;5070469;28;20205;-47
2021/12/15 06:29:52;;;;;;;35.35;18.17;;;9.80;99.90;;;;;;5061145;28;20666;-47
2021/12/15 06:32:21;;;;;;;41.53;18.95;;;9.80;99.90;;;;;;5053662;28;21243;-47
2021/12/15 06:34:48;;;;;;;35.00;17.70;;;9.70;99.90;;;;;;5064620;28;20792;-47
2021/12/15 06:37:15;;;;;;;33.55;17.30;;;9.70;99.90;;;;;;5053437;28;20246;-47
2021/12/15 06:39:42;;;;;;;34.90;16.55;;;9.70;99.90;;;;;;5053855;28;20218;-47
2021/12/15 06:42:09;;;;;;;35.25;17.35;;;9.70;99.90;;;;;;5077894;28;20196;-43
2021/12/15 06:44:36;;;;;;;42.17;18.20;;;9.70;99.90;;;;;;5088943;28;20991;-42
2021/12/15 06:58:12;;;;;;;38.85;18.98;;;9.70;99.90;;;;;;5065858;28;20241;-43
2021/12/15 07:00:43;;;;;;;41.10;19.30;;;9.70;99.90;;;;;;5056749;27;20569;-42
2021/12/15 07:03:12;;;;;;;43.85;20.05;;;9.70;99.90;;;;;;5076333;27;20555;-43
2021/12/15 07:05:40;;;;;;;42.13;21.38;;;9.70;99.90;;;;;;5059890;28;20200;-43
2021/12/15 07:08:09;;;;;;;44.97;20.83;;;9.70;99.90;;;;;;5053899;28;20814;-43
2021/12/15 07:10:38;;;;;;;44.28;20.30;;;9.70;99.90;;;;;;5066564;28;20791;-43
2021/12/15 07:13:06;;;;;;;45.10;20.37;;;9.70;99.90;;;;;;5081603;28;20415;-48
2021/12/15 07:15:34;;;;;;;48.15;21.58;;;9.80;99.90;;;;;;5061567;28;20302;-46
2021/12/15 07:18:04;;;;;;;46.72;21.70;;;9.80;99.90;;;;;;5071520;28;20315;-48
2021/12/15 07:20:39;;;;;;;45.67;21.65;;;9.80;99.90;;;;;;5064602;27;20199;-47
2021/12/15 07:23:09;;;;;;;45.90;21.10;;;9.70;99.90;;;;;;5071079;28;20313;-47
2021/12/15 07:25:37;;;;;;;51.10;20.63;;;9.80;99.90;;;;;;5073105;28;20227;-47
2021/12/15 07:28:04;;;;;;;45.83;21.02;;;9.80;99.90;;;;;;5075653;28;20303;-47
2021/12/15 07:30:32;;;;;;;48.65;20.90;;;9.80;99.90;;;;;;5067077;28;20509;-47
2021/12/15 07:32:59;;;;;;;44.65;20.20;;;9.80;99.90;;;;;;5043828;28;20255;-48
2021/12/15 07:35:26;;;;;;;46.50;22.02;;;9.80;99.90;;;;;;5062371;28;20220;-47
2021/12/15 07:37:55;;;;;;;44.33;21.08;;;9.70;99.90;;;;;;5075631;28;20219;-46
2021/12/15 07:40:23;;;;;;;44.47;20.60;;;9.70;99.90;;;;;;5066606;28;20717;-48
2021/12/15 07:43:04;;;;;;;52.17;21.95;;;9.80;99.90;;;;;;5059474;28;20231;-46
2021/12/15 07:45:31;;;;;;;50.38;23.00;;;9.70;99.90;;;;;;5066775;28;20274;-47
2021/12/15 07:48:01;;;;;;;52.70;23.25;;;9.70;99.90;;;;;;5066416;28;20519;-47
2021/12/15 07:50:30;;;;;;;45.95;22.52;;;9.80;99.90;;;;;;5089234;28;20200;-47
2021/12/15 07:52:58;;;;;;;50.67;22.80;;;9.80;99.90;;;;;;5051789;28;20700;-47
2021/12/15 07:55:26;;;;;;;49.40;21.98;;;9.70;99.90;;;;;;5072873;28;20216;-47
2021/12/15 07:57:53;;;;;;;47.83;22.65;;;9.80;99.90;;;;;;5068670;27;20945;-47
2021/12/15 08:00:23;;;;;;;51.17;23.10;;;9.70;99.90;;;;;;5064543;28;20200;-46
2021/12/15 08:02:51;;;;;;;55.20;23.88;;;9.80;99.90;;;;;;5059357;28;20200;-47
2021/12/15 08:05:18;;;;;;;48.70;22.90;;;9.70;99.90;;;;;;5073814;28;20224;-47
2021/12/15 08:07:45;;;;;;;54.00;23.55;;;9.80;99.90;;;;;;5063030;28;20207;-47
2021/12/15 08:10:14;;;;;;;54.17;25.02;;;9.70;99.90;;;;;;5051590;28;20211;-47
2021/12/15 08:12:42;;;;;;;54.30;24.25;;;9.80;99.90;;;;;;5064544;28;20231;-47
2021/12/15 08:15:09;;;;;;;56.92;26.90;;;9.80;99.90;;;;;;5064292;28;20219;-47
2021/12/15 08:17:37;;;;;;;58.97;26.65;;;9.80;99.90;;;;;;5088385;28;20210;-48
2021/12/15 08:20:07;;;;;;;54.88;23.73;;;9.80;99.90;;;;;;5070078;28;20211;-47
2021/12/15 08:22:34;;;;;;;57.17;25.52;;;9.80;99.90;;;;;;5052672;28;20838;-47
2021/12/15 08:25:01;;;;;;;60.25;26.95;;;9.80;99.90;;;;;;5062542;28;20238;-47
2021/12/15 08:27:29;;;;;;;53.10;24.17;;;9.80;99.90;;;;;;5069678;28;20250;-47
2021/12/15 08:29:56;;;;;;;58.70;25.27;;;9.80;99.90;;;;;;5064505;28;20222;-47
2021/12/15 08:32:23;;;;;;;56.00;24.77;;;9.80;99.90;;;;;;5076763;28;20585;-47
2021/12/15 08:34:50;;;;;;;55.13;26.13;;;9.80;99.90;;;;;;5053077;28;20224;-47
2021/12/15 08:37:17;;;;;;;58.63;26.70;;;9.80;99.90;;;;;;5070937;28;20218;-47
2021/12/15 08:39:45;;;;;;;42.63;19.58;;;9.80;99.90;;;;;;5087032;28;20211;-47
2021/12/15 08:42:13;;;;;;;60.22;28.30;;;10.00;99.90;;;;;;5059894;28;20300;-48
2021/12/15 08:44:42;;;;;;;62.15;28.20;;;9.90;99.90;;;;;;5065993;28;20231;-48
2021/12/15 08:47:10;;;;;;;56.53;26.73;;;9.90;99.90;;;;;;5068033;28;20421;-47
2021/12/15 08:49:38;;;;;;;57.13;27.58;;;9.90;99.90;;;;;;5066249;28;20254;-48
2021/12/15 08:52:06;;;;;;;59.42;27.65;;;9.90;99.90;;;;;;5052921;27;20207;-47
2021/12/15 08:54:34;;;;;;;59.30;27.23;;;9.90;99.90;;;;;;5039701;27;20235;-47
2021/12/15 08:57:01;;;;;;;61.28;27.98;;;9.90;99.90;;;;;;5078499;28;20215;-47
2021/12/15 08:59:28;;;;;;;58.22;27.92;;;9.90;99.90;;;;;;5059817;27;20223;-47
2021/12/15 09:01:56;;;;;;;57.78;26.80;;;9.90;99.90;;;;;;5059299;28;20297;-47
2021/12/15 09:04:23;;;;;;;66.38;27.38;;;9.90;99.90;;;;;;5073577;28;20203;-48
2021/12/15 09:06:51;;;;;;;62.67;28.10;;;9.90;99.90;;;;;;5062098;28;20284;-47
2021/12/15 09:09:21;;;;;;;58.53;27.13;;;9.90;99.90;;;;;;5066693;28;20208;-48
2021/12/15 09:11:49;;;;;;;56.93;27.20;;;9.90;99.90;;;;;;5080386;28;20196;-47
2021/12/15 09:14:16;;;;;;;55.70;25.60;;;9.90;99.90;;;;;;5050631;28;20637;-47
2021/12/15 09:16:47;;;;;;;61.63;27.00;;;10.00;99.90;;;;;;5076246;28;20714;-47
2021/12/15 09:19:16;;;;;;;55.65;26.15;;;10.00;99.90;;;;;;5059949;28;20823;-47
2021/12/15 09:21:43;;;;;;;57.65;26.15;;;10.00;99.90;;;;;;5067477;28;20200;-47
2021/12/15 09:24:12;;;;;;;59.05;26.88;;;9.90;99.90;;;;;;5037845;28;20582;-46
2021/12/15 09:26:38;;;;;;;63.03;27.65;;;10.00;99.90;;;;;;5079062;27;20396;-47
2021/12/15 09:29:07;;;;;;;67.93;27.13;;;10.00;99.90;;;;;;5054445;28;20226;-47
2021/12/15 09:31:35;;;;;;;58.67;26.77;;;10.00;99.90;;;;;;5054580;28;20408;-47
2021/12/15 09:34:02;;;;;;;54.95;26.33;;;10.00;99.90;;;;;;5074311;28;20655;-47
2021/12/15 09:36:31;;;;;;;54.35;26.15;;;10.00;99.90;;;;;;5050977;27;20298;-47
2021/12/15 09:39:00;;;;;;;54.03;26.83;;;10.00;99.90;;;;;;5062195;28;20215;-47
2021/12/15 09:41:28;;;;;;;57.90;27.17;;;10.00;99.90;;;;;;5051657;28;20394;-47
2021/12/15 09:43:57;;;;;;;59.00;26.15;;;10.00;99.90;;;;;;5064144;28;20280;-47
2021/12/15 09:46:35;;;;;;;53.00;26.23;;;10.00;99.90;;;;;;5060971;28;20674;-47
2021/12/15 09:57:28;;;;;;;50.28;26.08;;;10.00;99.90;;;;;;5083998;28;20203;-47
2021/12/15 10:02:52;;;;;;;53.30;25.77;;;10.00;99.90;;;;;;5057578;28;20297;-47
2021/12/15 10:05:36;;;;;;;54.53;26.48;;;10.00;99.90;;;;;;5062769;28;20230;-47
2021/12/15 10:11:14;;;;;;;54.67;25.15;;;10.10;99.90;;;;;;5064293;28;20249;-47
2021/12/15 10:19:23;;;;;;;48.40;25.00;;;10.10;99.90;;;;;;5067432;28;20210;-47
2021/12/15 10:22:05;;;;;;;56.92;25.67;;;10.10;99.90;;;;;;5046522;28;20717;-48
2021/12/15 10:24:37;;;;;;;49.33;24.83;;;10.10;99.90;;;;;;5074751;28;20709;-46
2021/12/15 10:27:07;;;;;;;51.35;26.63;;;10.20;99.90;;;;;;5056137;28;20485;-48
2021/12/15 10:29:34;;;;;;;51.15;25.52;;;10.20;99.90;;;;;;5068147;28;20212;-46
2021/12/15 10:32:04;;;;;;;47.08;24.05;;;10.20;99.90;;;;;;5053995;28;20211;-47
2021/12/15 10:34:32;;;;;;;46.00;24.42;;;10.20;99.90;;;;;;5062650;28;20247;-46
2021/12/15 10:36:58;;;;;;;49.53;25.75;;;10.20;99.90;;;;;;5055264;28;20677;-47
2021/12/15 10:39:26;;;;;;;51.17;26.00;;;10.20;99.90;;;;;;5057898;28;20200;-48
2021/12/15 10:41:55;;;;;;;50.83;25.58;;;10.20;99.90;;;;;;5057191;28;20510;-47
2021/12/15 10:44:25;;;;;;;53.72;24.88;;;10.20;99.90;;;;;;5073915;28;20229;-47
2021/12/15 10:46:57;;;;;;;52.17;24.58;;;10.20;99.90;;;;;;5075799;28;20404;-47
2021/12/15 10:49:26;;;;;;;47.33;23.15;;;10.30;99.90;;;;;;5058357;28;20223;-47
2021/12/15 10:51:57;;;;;;;47.85;25.02;;;10.20;99.90;;;;;;5061787;28;20502;-46
2021/12/15 10:54:27;;;;;;;45.97;25.38;;;10.30;99.90;;;;;;5054393;28;20361;-46
2021/12/15 10:56:58;;;;;;;48.15;23.80;;;10.20;99.90;;;;;;5056767;28;20543;-46
2021/12/15 10:59:27;;;;;;;52.88;24.95;;;10.30;99.90;;;;;;5037129;28;20232;-47
2021/12/15 11:02:02;;;;;;;47.78;24.17;;;10.30;99.90;;;;;;5071654;28;20212;-47
2021/12/15 11:04:33;;;;;;;48.05;24.02;;;10.30;99.90;;;;;;5035756;28;20230;-46
2021/12/15 11:07:14;;;;;;;41.78;22.67;;;10.30;99.90;;;;;;5063453;28;20207;-47
2021/12/15 11:09:44;;;;;;;48.00;23.27;;;10.30;99.90;;;;;;5059244;28;20214;-47
2021/12/15 11:12:16;;;;;;;39.05;22.30;;;10.30;99.90;;;;;;5088585;28;20199;-47
2021/12/15 11:14:47;;;;;;;47.65;23.45;;;10.30;99.90;;;;;;5077235;28;20224;-47
2021/12/15 11:17:16;;;;;;;40.33;21.90;;;10.30;99.90;;;;;;5053547;28;20207;-46
2021/12/15 11:19:53;;;;;;;43.75;22.63;;;10.30;99.90;;;;;;5052010;28;20216;-47
2021/12/15 11:22:55;;;;;;;44.92;23.42;;;10.40;99.90;;;;;;5074699;28;20199;-47
2021/12/15 11:25:41;;;;;;;43.38;22.55;;;10.30;99.90;;;;;;5055687;28;20220;-47
2021/12/15 11:28:15;;;;;;;41.05;22.50;;;10.40;99.90;;;;;;5078372;28;20928;-46
2021/12/15 11:30:46;;;;;;;43.92;21.42;;;10.30;99.90;;;;;;5066881;28;20215;-48
2021/12/15 11:33:16;;;;;;;44.13;22.42;;;10.40;99.90;;;;;;5081015;27;20196;-46
2021/12/15 11:35:49;;;;;;;42.35;23.35;;;10.40;99.90;;;;;;5042366;28;21770;-47
2021/12/15 11:38:20;;;;;;;39.83;21.60;;;10.40;99.90;;;;;;5071269;28;20208;-46
2021/12/15 11:40:51;;;;;;;38.45;21.55;;;10.40;99.90;;;;;;5064529;28;20828;-47
2021/12/15 11:43:35;;;;;;;40.40;21.23;;;10.40;99.90;;;;;;5075386;28;20216;-47
2021/12/15 11:46:13;;;;;;;40.30;20.85;;;10.40;99.90;;;;;;5062737;28;20207;-48
2021/12/15 11:48:40;;;;;;;39.65;21.30;;;10.40;99.90;;;;;;5073792;28;20199;-47
2021/12/15 11:51:09;;;;;;;38.28;20.50;;;10.40;99.90;;;;;;5020084;28;21685;-43
2021/12/15 11:53:41;;;;;;;38.13;20.48;;;10.40;99.90;;;;;;5071600;28;20558;-48
2021/12/15 11:56:24;;;;;;;33.80;20.52;;;10.40;99.90;;;;;;5062807;27;20220;-48
2021/12/15 11:58:56;;;;;;;38.90;18.73;;;10.50;99.90;;;;;;5065651;27;20199;-47
2021/12/15 12:02:02;;;;;;;39.10;20.45;;;10.40;99.90;;;;;;5042063;28;20739;-47
2021/12/15 12:04:36;;;;;;;39.08;19.17;;;10.50;99.90;;;;;;4999060;28;20734;-47
2021/12/15 12:07:22;;;;;;;30.38;18.48;;;10.50;99.90;;;;;;4955112;28;20224;-47
2021/12/15 12:09:52;;;;;;;34.17;19.42;;;10.50;99.90;;;;;;5049202;28;20247;-47
2021/12/15 12:12:23;;;;;;;35.60;18.65;;;10.50;99.90;;;;;;5053874;28;20300;-46
2021/12/15 12:14:51;;;;;;;34.13;18.88;;;10.50;99.90;;;;;;5068233;28;20345;-46
2021/12/15 12:17:21;;;;;;;31.27;17.25;;;10.50;99.90;;;;;;5064595;28;20200;-47
2021/12/15 12:19:53;;;;;;;31.48;18.17;;;10.50;99.90;;;;;;5062871;28;20207;-46
2021/12/15 12:22:21;;;;;;;29.85;16.75;;;10.60;99.90;;;;;;5064371;28;20293;-46
2021/12/15 12:24:52;;;;;;;28.50;15.95;;;10.50;99.90;;;;;;5076216;28;20613;-46
2021/12/15 12:27:20;;;;;;;29.75;16.48;;;10.50;99.90;;;;;;5067727;28;20214;-47
2021/12/15 12:29:48;;;;;;;31.40;15.95;;;10.50;99.90;;;;;;5074808;28;20215;-46
2021/12/15 12:32:16;;;;;;;24.33;14.82;;;10.50;99.90;;;;;;5042401;28;20206;-46
2021/12/15 12:34:43;;;;;;;26.83;16.10;;;10.50;99.90;;;;;;5076469;28;20234;-45
2021/12/15 12:37:13;;;;;;;23.00;14.30;;;10.50;99.90;;;;;;5042840;28;20211;-47
2021/12/15 12:39:40;;;;;;;27.38;14.45;;;10.50;99.90;;;;;;5048183;28;20211;-46
2021/12/15 12:42:08;;;;;;;23.70;13.88;;;10.50;99.90;;;;;;5058738;28;20203;-47
2021/12/15 12:44:38;;;;;;;26.30;15.10;;;10.50;99.90;;;;;;5039720;28;20219;-46
2021/12/15 12:47:18;;;;;;;25.25;15.43;;;10.50;99.90;;;;;;5045823;28;20215;-47
2021/12/15 13:00:55;;;;;;;26.80;14.15;;;10.50;99.90;;;;;;5058772;27;20306;-47
2021/12/15 13:03:31;;;;;;;21.58;13.43;;;10.50;99.90;;;;;;5063189;28;20731;-47
2021/12/15 13:06:02;;;;;;;23.33;14.05;;;10.40;99.90;;;;;;5052461;28;20204;-47
2021/12/15 13:08:38;;;;;;;23.92;13.25;;;10.40;99.90;;;;;;5056819;28;20207;-47
2021/12/15 13:11:18;;;;;;;21.75;12.43;;;10.40;99.90;;;;;;5077423;28;20211;-43
2021/12/15 13:13:55;;;;;;;20.40;11.75;;;10.40;99.90;;;;;;5056381;28;20230;-47
2021/12/15 13:16:38;;;;;;;18.80;12.07;;;10.40;99.90;;;;;;5074457;28;20250;-47
2021/12/15 13:19:16;;;;;;;22.55;11.52;;;10.40;99.90;;;;;;5062980;27;20203;-47
2021/12/15 13:21:59;;;;;;;16.92;11.00;;;10.40;99.90;;;;;;5048415;28;20299;-43
2021/12/15 13:30:47;;;;;;;18.33;10.82;;;10.60;99.90;;;;;;5054439;28;20209;-48
2021/12/15 13:33:18;;;;;;;17.23;10.70;;;10.50;99.90;;;;;;5052137;28;20211;-48
2021/12/15 13:35:52;;;;;;;16.50;10.35;;;10.50;99.90;;;;;;5043968;28;20223;-47
2021/12/15 13:38:33;;;;;;;17.05;11.05;;;10.50;99.90;;;;;;5047165;28;20299;-47
2021/12/15 13:41:10;;;;;;;21.33;11.63;;;10.40;99.90;;;;;;5052812;28;20211;-43
2021/12/15 13:43:46;;;;;;;19.40;10.85;;;10.40;99.90;;;;;;5073630;28;20231;-43
2021/12/15 13:46:39;;;;;;;17.58;11.30;;;10.40;99.90;;;;;;5054287;28;20677;-47
2021/12/15 13:49:28;;;;;;;20.27;11.65;;;10.40;99.90;;;;;;5058524;28;20771;-44
2021/12/15 13:52:17;;;;;;;24.27;13.13;;;10.40;99.90;;;;;;5049107;28;20207;-44
2021/12/15 13:55:11;;;;;;;21.70;12.10;;;10.30;99.90;;;;;;5045932;28;20615;-44
2021/12/15 13:57:40;;;;;;;21.75;12.52;;;10.30;99.90;;;;;;5059182;28;20908;-44
2021/12/15 14:00:17;;;;;;;22.98;13.00;;;10.30;99.90;;;;;;5031574;28;20204;-44
2021/12/15 14:03:00;;;;;;;23.65;12.98;;;10.30;99.90;;;;;;5067106;28;20206;-44